sensor_id;sensor_type;location;lat;lon;timestamp;P1;durP1;ratioP1;P2;durP2;ratioP2
14235;SDS011;7202;50.718;7.072;2023-06-22T01:05:22;10.82;;;7.07;;
14235;SDS011;7202;50.718;7.072;2023-06-22T01:07:56;8.68;;;6.53;;
14235;SDS011;7202;50.718;7.072;2023-06-22T01:10:35;8.85;;;6.55;;
14235;SDS011;7202;50.718;7.072;2023-06-22T01:13:11;10.15;;;6.38;;
14235;SDS011;7202;50.718;7.072;2023-06-22T01:15:46;8.57;;;6.40;;
14235;SDS011;7202;50.718;7.072;2023-06-22T01:18:19;7.10;;;6.30;;
14235;SDS011;7202;50.718;7.072;2023-06-22T01:20:54;7.15;;;6.22;;
14235;SDS011;7202;50.718;7.072;2023-06-22T01:23:26;9.02;;;6.35;;
14235;SDS011;7202;50.718;7.072;2023-06-22T01:26:04;7.32;;;6.63;;
14235;SDS011;7202;50.718;7.072;2023-06-22T01:28:42;7.78;;;6.15;;
14235;SDS011;7202;50.718;7.072;2023-06-22T01:31:14;7.05;;;6.10;;
14235;SDS011;7202;50.718;7.072;2023-06-22T01:33:46;8.05;;;6.85;;
14235;SDS011;7202;50.718;7.072;2023-06-22T01:36:19;8.98;;;7.38;;
14235;SDS011;7202;50.718;7.072;2023-06-22T01:38:49;6.93;;;6.22;;
14235;SDS011;7202;50.718;7.072;2023-06-22T01:41:18;7.43;;;6.10;;
14235;SDS011;7202;50.718;7.072;2023-06-22T01:43:49;9.70;;;6.30;;
14235;SDS011;7202;50.718;7.072;2023-06-22T01:46:20;7.88;;;6.60;;
14235;SDS011;7202;50.718;7.072;2023-06-22T01:48:50;9.38;;;6.40;;
14235;SDS011;7202;50.718;7.072;2023-06-22T01:51:19;7.47;;;6.28;;
14235;SDS011;7202;50.718;7.072;2023-06-22T01:53:48;7.40;;;6.32;;
14235;SDS011;7202;50.718;7.072;2023-06-22T01:56:18;9.00;;;6.20;;
14235;SDS011;7202;50.718;7.072;2023-06-22T01:58:48;7.97;;;6.30;;
14235;SDS011;7202;50.718;7.072;2023-06-22T02:01:26;7.88;;;7.00;;
14235;SDS011;7202;50.718;7.072;2023-06-22T02:04:02;11.80;;;6.85;;
14235;SDS011;7202;50.718;7.072;2023-06-22T02:06:36;8.27;;;6.35;;
14235;SDS011;7202;50.718;7.072;2023-06-22T02:09:11;7.53;;;5.78;;
14235;SDS011;7202;50.718;7.072;2023-06-22T02:11:43;6.88;;;6.18;;
14235;SDS011;7202;50.718;7.072;2023-06-22T02:14:15;7.32;;;6.63;;
14235;SDS011;7202;50.718;7.072;2023-06-22T02:16:46;11.55;;;6.93;;
14235;SDS011;7202;50.718;7.072;2023-06-22T02:19:14;7.05;;;6.25;;
14235;SDS011;7202;50.718;7.072;2023-06-22T02:21:45;9.45;;;6.97;;
14235;SDS011;7202;50.718;7.072;2023-06-22T02:24:13;7.38;;;6.53;;
14235;SDS011;7202;50.718;7.072;2023-06-22T02:26:42;6.78;;;6.10;;
14235;SDS011;7202;50.718;7.072;2023-06-22T02:29:12;6.85;;;6.25;;
14235;SDS011;7202;50.718;7.072;2023-06-22T02:31:43;7.28;;;6.18;;
14235;SDS011;7202;50.718;7.072;2023-06-22T02:34:12;9.70;;;6.88;;
14235;SDS011;7202;50.718;7.072;2023-06-22T02:36:45;7.57;;;6.07;;
14235;SDS011;7202;50.718;7.072;2023-06-22T02:39:18;7.20;;;6.50;;
14235;SDS011;7202;50.718;7.072;2023-06-22T02:41:49;7.95;;;6.93;;
14235;SDS011;7202;50.718;7.072;2023-06-22T02:44:18;7.60;;;6.03;;
14235;SDS011;7202;50.718;7.072;2023-06-22T02:46:49;10.88;;;6.55;;
14235;SDS011;7202;50.718;7.072;2023-06-22T02:49:18;6.75;;;6.10;;
14235;SDS011;7202;50.718;7.072;2023-06-22T02:51:47;6.55;;;5.95;;
14235;SDS011;7202;50.718;7.072;2023-06-22T02:54:19;9.13;;;6.15;;
14235;SDS011;7202;50.718;7.072;2023-06-22T02:56:50;6.93;;;6.32;;
14235;SDS011;7202;50.718;7.072;2023-06-22T02:59:20;11.13;;;6.57;;
14235;SDS011;7202;50.718;7.072;2023-06-22T03:01:54;8.45;;;6.53;;
14235;SDS011;7202;50.718;7.072;2023-06-22T03:04:27;7.70;;;6.18;;
14235;SDS011;7202;50.718;7.072;2023-06-22T03:06:58;8.10;;;6.30;;
14235;SDS011;7202;50.718;7.072;2023-06-22T03:09:29;7.90;;;6.03;;
14235;SDS011;7202;50.718;7.072;2023-06-22T03:11:58;16.10;;;7.25;;
14235;SDS011;7202;50.718;7.072;2023-06-22T03:14:37;11.77;;;6.57;;
14235;SDS011;7202;50.718;7.072;2023-06-22T03:17:07;9.02;;;7.43;;
14235;SDS011;7202;50.718;7.072;2023-06-22T03:19:38;10.18;;;6.78;;
14235;SDS011;7202;50.718;7.072;2023-06-22T03:22:07;9.82;;;7.07;;
14235;SDS011;7202;50.718;7.072;2023-06-22T03:24:39;9.20;;;6.88;;
14235;SDS011;7202;50.718;7.072;2023-06-22T03:27:07;10.32;;;6.07;;
14235;SDS011;7202;50.718;7.072;2023-06-22T03:29:36;10.32;;;6.70;;
14235;SDS011;7202;50.718;7.072;2023-06-22T03:32:06;9.57;;;6.97;;
14235;SDS011;7202;50.718;7.072;2023-06-22T03:34:35;10.27;;;7.40;;
14235;SDS011;7202;50.718;7.072;2023-06-22T03:37:04;10.77;;;6.65;;
14235;SDS011;7202;50.718;7.072;2023-06-22T03:39:32;10.02;;;7.63;;
14235;SDS011;7202;50.718;7.072;2023-06-22T03:42:01;8.07;;;6.75;;
14235;SDS011;7202;50.718;7.072;2023-06-22T03:44:30;9.65;;;6.97;;
14235;SDS011;7202;50.718;7.072;2023-06-22T03:46:58;10.35;;;6.72;;
14235;SDS011;7202;50.718;7.072;2023-06-22T03:49:30;9.85;;;6.85;;
14235;SDS011;7202;50.718;7.072;2023-06-22T03:51:59;9.52;;;7.30;;
14235;SDS011;7202;50.718;7.072;2023-06-22T03:54:27;8.82;;;7.38;;
14235;SDS011;7202;50.718;7.072;2023-06-22T03:56:57;11.25;;;7.88;;
14235;SDS011;7202;50.718;7.072;2023-06-22T03:59:26;10.13;;;7.15;;
14235;SDS011;7202;50.718;7.072;2023-06-22T04:01:54;8.85;;;7.20;;
14235;SDS011;7202;50.718;7.072;2023-06-22T04:04:23;10.40;;;7.30;;
14235;SDS011;7202;50.718;7.072;2023-06-22T04:06:53;12.25;;;7.80;;
14235;SDS011;7202;50.718;7.072;2023-06-22T04:09:22;8.52;;;7.65;;
14235;SDS011;7202;50.718;7.072;2023-06-22T04:11:50;8.32;;;7.60;;
14235;SDS011;7202;50.718;7.072;2023-06-22T04:14:19;9.32;;;7.07;;
14235;SDS011;7202;50.718;7.072;2023-06-22T04:16:48;7.90;;;7.10;;
14235;SDS011;7202;50.718;7.072;2023-06-22T04:19:16;8.20;;;6.88;;
14235;SDS011;7202;50.718;7.072;2023-06-22T04:21:45;7.88;;;7.18;;
14235;SDS011;7202;50.718;7.072;2023-06-22T04:24:16;9.75;;;7.35;;
14235;SDS011;7202;50.718;7.072;2023-06-22T04:26:45;8.00;;;7.20;;
14235;SDS011;7202;50.718;7.072;2023-06-22T04:29:14;9.70;;;7.28;;
14235;SDS011;7202;50.718;7.072;2023-06-22T04:31:43;8.27;;;7.22;;
14235;SDS011;7202;50.718;7.072;2023-06-22T04:34:11;10.70;;;8.15;;
14235;SDS011;7202;50.718;7.072;2023-06-22T04:36:43;9.63;;;7.53;;
14235;SDS011;7202;50.718;7.072;2023-06-22T04:39:12;8.85;;;7.35;;
14235;SDS011;7202;50.718;7.072;2023-06-22T04:41:42;8.25;;;7.47;;
14235;SDS011;7202;50.718;7.072;2023-06-22T04:44:10;8.45;;;7.53;;
14235;SDS011;7202;50.718;7.072;2023-06-22T04:46:39;11.13;;;7.22;;
14235;SDS011;7202;50.718;7.072;2023-06-22T04:49:09;8.52;;;7.72;;
14235;SDS011;7202;50.718;7.072;2023-06-22T04:51:39;8.13;;;7.32;;
14235;SDS011;7202;50.718;7.072;2023-06-22T04:54:09;14.48;;;7.90;;
14235;SDS011;7202;50.718;7.072;2023-06-22T04:56:37;7.95;;;7.20;;
14235;SDS011;7202;50.718;7.072;2023-06-22T04:59:09;10.73;;;8.05;;
14235;SDS011;7202;50.718;7.072;2023-06-22T05:01:40;10.02;;;7.18;;
14235;SDS011;7202;50.718;7.072;2023-06-22T05:04:08;8.25;;;7.47;;
14235;SDS011;7202;50.718;7.072;2023-06-22T05:06:37;11.68;;;7.68;;
14235;SDS011;7202;50.718;7.072;2023-06-22T05:09:07;10.88;;;7.35;;
14235;SDS011;7202;50.718;7.072;2023-06-22T05:11:36;10.30;;;7.38;;
14235;SDS011;7202;50.718;7.072;2023-06-22T05:14:04;9.93;;;7.75;;
14235;SDS011;7202;50.718;7.072;2023-06-22T05:16:35;9.95;;;7.50;;
14235;SDS011;7202;50.718;7.072;2023-06-22T05:19:05;9.35;;;7.68;;
14235;SDS011;7202;50.718;7.072;2023-06-22T05:21:33;12.63;;;8.23;;
14235;SDS011;7202;50.718;7.072;2023-06-22T05:24:02;9.18;;;7.88;;
14235;SDS011;7202;50.718;7.072;2023-06-22T05:26:33;9.05;;;7.70;;
14235;SDS011;7202;50.718;7.072;2023-06-22T05:29:02;9.02;;;8.13;;
14235;SDS011;7202;50.718;7.072;2023-06-22T05:31:31;9.30;;;8.13;;
14235;SDS011;7202;50.718;7.072;2023-06-22T05:34:01;11.90;;;8.88;;
14235;SDS011;7202;50.718;7.072;2023-06-22T05:36:30;12.65;;;7.72;;
14235;SDS011;7202;50.718;7.072;2023-06-22T05:38:58;13.65;;;8.68;;
14235;SDS011;7202;50.718;7.072;2023-06-22T05:41:27;10.45;;;8.30;;
14235;SDS011;7202;50.718;7.072;2023-06-22T05:43:56;9.75;;;8.60;;
14235;SDS011;7202;50.718;7.072;2023-06-22T05:46:25;14.95;;;9.00;;
14235;SDS011;7202;50.718;7.072;2023-06-22T05:48:53;11.18;;;8.57;;
14235;SDS011;7202;50.718;7.072;2023-06-22T05:51:23;9.00;;;8.10;;
14235;SDS011;7202;50.718;7.072;2023-06-22T05:53:52;9.40;;;8.07;;
14235;SDS011;7202;50.718;7.072;2023-06-22T05:56:21;9.00;;;8.10;;
14235;SDS011;7202;50.718;7.072;2023-06-22T05:58:50;12.13;;;9.23;;
14235;SDS011;7202;50.718;7.072;2023-06-22T06:01:18;9.73;;;7.55;;
14235;SDS011;7202;50.718;7.072;2023-06-22T06:03:47;10.23;;;8.05;;
14235;SDS011;7202;50.718;7.072;2023-06-22T06:06:16;10.77;;;8.30;;
14235;SDS011;7202;50.718;7.072;2023-06-22T06:08:46;8.68;;;7.75;;
14235;SDS011;7202;50.718;7.072;2023-06-22T06:11:15;9.98;;;8.98;;
14235;SDS011;7202;50.718;7.072;2023-06-22T06:13:43;9.68;;;8.63;;
14235;SDS011;7202;50.718;7.072;2023-06-22T06:16:12;9.23;;;8.20;;
14235;SDS011;7202;50.718;7.072;2023-06-22T06:18:41;13.73;;;8.70;;
14235;SDS011;7202;50.718;7.072;2023-06-22T06:21:10;10.40;;;8.45;;
14235;SDS011;7202;50.718;7.072;2023-06-22T06:23:38;13.15;;;10.25;;
14235;SDS011;7202;50.718;7.072;2023-06-22T06:26:08;10.27;;;9.27;;
14235;SDS011;7202;50.718;7.072;2023-06-22T06:28:37;9.95;;;8.23;;
14235;SDS011;7202;50.718;7.072;2023-06-22T06:31:05;10.50;;;9.43;;
14235;SDS011;7202;50.718;7.072;2023-06-22T06:33:36;8.55;;;7.75;;
14235;SDS011;7202;50.718;7.072;2023-06-22T06:36:04;12.38;;;9.82;;
14235;SDS011;7202;50.718;7.072;2023-06-22T06:38:35;10.55;;;8.63;;
14235;SDS011;7202;50.718;7.072;2023-06-22T06:41:03;11.50;;;9.13;;
14235;SDS011;7202;50.718;7.072;2023-06-22T06:43:33;10.80;;;9.20;;
14235;SDS011;7202;50.718;7.072;2023-06-22T06:46:02;14.02;;;8.98;;
14235;SDS011;7202;50.718;7.072;2023-06-22T06:48:31;8.98;;;8.07;;
14235;SDS011;7202;50.718;7.072;2023-06-22T06:51:00;10.27;;;9.27;;
14235;SDS011;7202;50.718;7.072;2023-06-22T06:53:28;13.60;;;9.52;;
14235;SDS011;7202;50.718;7.072;2023-06-22T06:55:57;10.88;;;9.88;;
14235;SDS011;7202;50.718;7.072;2023-06-22T06:58:25;12.02;;;10.25;;
14235;SDS011;7202;50.718;7.072;2023-06-22T07:00:56;11.10;;;9.52;;
14235;SDS011;7202;50.718;7.072;2023-06-22T07:03:25;10.60;;;9.57;;
14235;SDS011;7202;50.718;7.072;2023-06-22T07:05:54;11.80;;;10.60;;
14235;SDS011;7202;50.718;7.072;2023-06-22T07:08:22;11.88;;;10.77;;
14235;SDS011;7202;50.718;7.072;2023-06-22T07:10:51;10.95;;;9.75;;
14235;SDS011;7202;50.718;7.072;2023-06-22T07:13:20;12.98;;;10.27;;
14235;SDS011;7202;50.718;7.072;2023-06-22T07:15:49;10.77;;;9.65;;
14235;SDS011;7202;50.718;7.072;2023-06-22T07:18:19;12.77;;;11.43;;
14235;SDS011;7202;50.718;7.072;2023-06-22T07:20:48;12.05;;;10.90;;
14235;SDS011;7202;50.718;7.072;2023-06-22T07:23:16;9.98;;;8.82;;
14235;SDS011;7202;50.718;7.072;2023-06-22T07:25:45;11.80;;;10.70;;
14235;SDS011;7202;50.718;7.072;2023-06-22T07:28:14;14.93;;;10.90;;
14235;SDS011;7202;50.718;7.072;2023-06-22T07:30:42;13.18;;;11.05;;
14235;SDS011;7202;50.718;7.072;2023-06-22T07:33:11;10.70;;;9.63;;
14235;SDS011;7202;50.718;7.072;2023-06-22T07:35:41;11.13;;;10.07;;
14235;SDS011;7202;50.718;7.072;2023-06-22T07:38:11;11.93;;;10.50;;
14235;SDS011;7202;50.718;7.072;2023-06-22T07:40:39;13.45;;;10.65;;
14235;SDS011;7202;50.718;7.072;2023-06-22T07:43:08;14.77;;;9.82;;
14235;SDS011;7202;50.718;7.072;2023-06-22T07:45:37;12.32;;;11.18;;
14235;SDS011;7202;50.718;7.072;2023-06-22T07:48:07;11.45;;;10.13;;
14235;SDS011;7202;50.718;7.072;2023-06-22T07:50:36;13.20;;;10.73;;
14235;SDS011;7202;50.718;7.072;2023-06-22T07:53:06;12.05;;;10.40;;
14235;SDS011;7202;50.718;7.072;2023-06-22T07:55:34;11.50;;;10.32;;
14235;SDS011;7202;50.718;7.072;2023-06-22T07:58:03;9.27;;;8.32;;
14235;SDS011;7202;50.718;7.072;2023-06-22T08:00:33;12.75;;;9.25;;
14235;SDS011;7202;50.718;7.072;2023-06-22T08:03:02;9.40;;;8.38;;
14235;SDS011;7202;50.718;7.072;2023-06-22T08:05:32;10.57;;;8.82;;
14235;SDS011;7202;50.718;7.072;2023-06-22T08:08:01;9.50;;;8.60;;
14235;SDS011;7202;50.718;7.072;2023-06-22T08:10:31;10.50;;;9.40;;
14235;SDS011;7202;50.718;7.072;2023-06-22T08:12:59;10.80;;;9.23;;
14235;SDS011;7202;50.718;7.072;2023-06-22T08:15:28;10.43;;;9.43;;
14235;SDS011;7202;50.718;7.072;2023-06-22T08:17:57;11.00;;;9.82;;
14235;SDS011;7202;50.718;7.072;2023-06-22T08:20:27;12.48;;;9.38;;
14235;SDS011;7202;50.718;7.072;2023-06-22T08:22:56;9.90;;;9.00;;
14235;SDS011;7202;50.718;7.072;2023-06-22T08:25:33;12.38;;;9.00;;
14235;SDS011;7202;50.718;7.072;2023-06-22T08:28:03;9.63;;;8.70;;
14235;SDS011;7202;50.718;7.072;2023-06-22T08:30:32;10.70;;;8.43;;
14235;SDS011;7202;50.718;7.072;2023-06-22T08:33:00;10.05;;;8.98;;
14235;SDS011;7202;50.718;7.072;2023-06-22T08:35:29;9.40;;;8.60;;
14235;SDS011;7202;50.718;7.072;2023-06-22T08:37:59;10.60;;;8.50;;
14235;SDS011;7202;50.718;7.072;2023-06-22T08:40:28;9.70;;;8.80;;
14235;SDS011;7202;50.718;7.072;2023-06-22T08:42:58;10.88;;;8.60;;
14235;SDS011;7202;50.718;7.072;2023-06-22T08:45:27;10.73;;;7.70;;
14235;SDS011;7202;50.718;7.072;2023-06-22T08:47:57;9.95;;;9.05;;
14235;SDS011;7202;50.718;7.072;2023-06-22T08:50:25;9.45;;;8.55;;
14235;SDS011;7202;50.718;7.072;2023-06-22T08:52:55;9.23;;;8.25;;
14235;SDS011;7202;50.718;7.072;2023-06-22T08:55:25;10.10;;;9.00;;
14235;SDS011;7202;50.718;7.072;2023-06-22T08:57:54;9.52;;;7.55;;
14235;SDS011;7202;50.718;7.072;2023-06-22T09:00:24;10.73;;;8.68;;
14235;SDS011;7202;50.718;7.072;2023-06-22T09:02:53;10.05;;;8.85;;
14235;SDS011;7202;50.718;7.072;2023-06-22T09:05:26;9.77;;;8.77;;
14235;SDS011;7202;50.718;7.072;2023-06-22T09:07:56;9.77;;;7.72;;
14235;SDS011;7202;50.718;7.072;2023-06-22T09:10:26;9.48;;;8.48;;
14235;SDS011;7202;50.718;7.072;2023-06-22T09:12:56;9.50;;;8.60;;
14235;SDS011;7202;50.718;7.072;2023-06-22T09:15:26;10.68;;;7.85;;
14235;SDS011;7202;50.718;7.072;2023-06-22T09:17:55;9.32;;;8.43;;
14235;SDS011;7202;50.718;7.072;2023-06-22T09:20:24;10.02;;;8.98;;
14235;SDS011;7202;50.718;7.072;2023-06-22T09:22:54;9.60;;;8.70;;
14235;SDS011;7202;50.718;7.072;2023-06-22T09:25:22;10.60;;;8.13;;
14235;SDS011;7202;50.718;7.072;2023-06-22T09:27:51;10.98;;;8.68;;
14235;SDS011;7202;50.718;7.072;2023-06-22T09:30:20;9.57;;;8.68;;
14235;SDS011;7202;50.718;7.072;2023-06-22T09:32:51;10.30;;;9.30;;
14235;SDS011;7202;50.718;7.072;2023-06-22T09:35:19;9.30;;;8.40;;
14235;SDS011;7202;50.718;7.072;2023-06-22T09:37:48;9.95;;;8.95;;
14235;SDS011;7202;50.718;7.072;2023-06-22T09:40:18;9.32;;;8.30;;
14235;SDS011;7202;50.718;7.072;2023-06-22T09:42:47;9.32;;;8.38;;
14235;SDS011;7202;50.718;7.072;2023-06-22T09:45:15;9.40;;;8.18;;
14235;SDS011;7202;50.718;7.072;2023-06-22T09:47:44;12.48;;;8.68;;
14235;SDS011;7202;50.718;7.072;2023-06-22T09:50:14;9.57;;;8.57;;
14235;SDS011;7202;50.718;7.072;2023-06-22T09:52:42;9.50;;;8.52;;
14235;SDS011;7202;50.718;7.072;2023-06-22T09:55:14;9.45;;;8.55;;
14235;SDS011;7202;50.718;7.072;2023-06-22T09:57:44;9.50;;;8.60;;
14235;SDS011;7202;50.718;7.072;2023-06-22T10:00:12;9.30;;;8.40;;
14235;SDS011;7202;50.718;7.072;2023-06-22T10:02:45;15.93;;;11.02;;
14235;SDS011;7202;50.718;7.072;2023-06-22T10:05:16;10.27;;;8.43;;
14235;SDS011;7202;50.718;7.072;2023-06-22T10:07:45;15.50;;;9.30;;
14235;SDS011;7202;50.718;7.072;2023-06-22T10:10:13;10.95;;;9.85;;
14235;SDS011;7202;50.718;7.072;2023-06-22T10:12:43;8.95;;;8.00;;
14235;SDS011;7202;50.718;7.072;2023-06-22T10:15:16;12.25;;;8.98;;
14235;SDS011;7202;50.718;7.072;2023-06-22T10:17:45;9.68;;;8.38;;
14235;SDS011;7202;50.718;7.072;2023-06-22T10:20:14;9.93;;;9.02;;
14235;SDS011;7202;50.718;7.072;2023-06-22T10:22:45;9.80;;;8.80;;
14235;SDS011;7202;50.718;7.072;2023-06-22T10:25:14;9.43;;;8.63;;
14235;SDS011;7202;50.718;7.072;2023-06-22T10:27:42;8.98;;;8.13;;
14235;SDS011;7202;50.718;7.072;2023-06-22T10:30:11;9.93;;;8.93;;
14235;SDS011;7202;50.718;7.072;2023-06-22T10:32:41;10.07;;;9.02;;
14235;SDS011;7202;50.718;7.072;2023-06-22T10:35:11;9.95;;;8.80;;
14235;SDS011;7202;50.718;7.072;2023-06-22T10:37:44;10.73;;;9.52;;
14235;SDS011;7202;50.718;7.072;2023-06-22T10:40:14;15.18;;;10.55;;
14235;SDS011;7202;50.718;7.072;2023-06-22T10:42:44;20.95;;;11.07;;
14235;SDS011;7202;50.718;7.072;2023-06-22T10:45:13;17.17;;;11.65;;
14235;SDS011;7202;50.718;7.072;2023-06-22T10:47:41;14.98;;;11.80;;
14235;SDS011;7202;50.718;7.072;2023-06-22T10:50:10;15.00;;;11.35;;
14235;SDS011;7202;50.718;7.072;2023-06-22T10:52:39;17.08;;;12.93;;
14235;SDS011;7202;50.718;7.072;2023-06-22T10:55:10;22.38;;;12.93;;
14235;SDS011;7202;50.718;7.072;2023-06-22T10:57:39;20.98;;;13.50;;
14235;SDS011;7202;50.718;7.072;2023-06-22T11:00:11;21.05;;;14.05;;
14235;SDS011;7202;50.718;7.072;2023-06-22T11:02:40;17.10;;;13.07;;
14235;SDS011;7202;50.718;7.072;2023-06-22T11:05:09;15.27;;;13.60;;
14235;SDS011;7202;50.718;7.072;2023-06-22T11:07:38;22.63;;;15.27;;
14235;SDS011;7202;50.718;7.072;2023-06-22T11:10:12;18.45;;;13.75;;
14235;SDS011;7202;50.718;7.072;2023-06-22T11:12:40;18.23;;;13.70;;
14235;SDS011;7202;50.718;7.072;2023-06-22T11:15:10;16.98;;;13.10;;
14235;SDS011;7202;50.718;7.072;2023-06-22T11:17:38;16.33;;;13.50;;
14235;SDS011;7202;50.718;7.072;2023-06-22T11:20:07;14.93;;;13.40;;
14235;SDS011;7202;50.718;7.072;2023-06-22T11:22:38;13.80;;;12.40;;
14235;SDS011;7202;50.718;7.072;2023-06-22T11:25:07;14.50;;;13.10;;
14235;SDS011;7202;50.718;7.072;2023-06-22T11:27:39;15.30;;;12.95;;
14235;SDS011;7202;50.718;7.072;2023-06-22T11:30:08;15.82;;;14.15;;
14235;SDS011;7202;50.718;7.072;2023-06-22T11:32:37;15.35;;;13.90;;
14235;SDS011;7202;50.718;7.072;2023-06-22T11:35:06;15.52;;;13.95;;
14235;SDS011;7202;50.718;7.072;2023-06-22T11:37:35;17.05;;;14.90;;
14235;SDS011;7202;50.718;7.072;2023-06-22T11:40:04;15.48;;;13.57;;
14235;SDS011;7202;50.718;7.072;2023-06-22T11:42:35;13.10;;;11.80;;
14235;SDS011;7202;50.718;7.072;2023-06-22T11:45:06;14.48;;;13.07;;
14235;SDS011;7202;50.718;7.072;2023-06-22T11:47:35;13.85;;;11.25;;
14235;SDS011;7202;50.718;7.072;2023-06-22T11:50:05;12.05;;;10.93;;
14235;SDS011;7202;50.718;7.072;2023-06-22T11:52:34;10.77;;;9.77;;
14235;SDS011;7202;50.718;7.072;2023-06-22T11:55:04;11.82;;;10.68;;
14235;SDS011;7202;50.718;7.072;2023-06-22T11:57:34;11.40;;;10.20;;
14235;SDS011;7202;50.718;7.072;2023-06-22T12:00:06;13.45;;;12.05;;
14235;SDS011;7202;50.718;7.072;2023-06-22T12:02:43;13.27;;;11.77;;
14235;SDS011;7202;50.718;7.072;2023-06-22T12:05:12;11.90;;;10.80;;
14235;SDS011;7202;50.718;7.072;2023-06-22T12:07:40;14.25;;;12.43;;
14235;SDS011;7202;50.718;7.072;2023-06-22T12:10:09;13.38;;;12.13;;
14235;SDS011;7202;50.718;7.072;2023-06-22T12:12:38;12.25;;;11.05;;
14235;SDS011;7202;50.718;7.072;2023-06-22T12:15:08;11.60;;;10.40;;
14235;SDS011;7202;50.718;7.072;2023-06-22T12:17:38;11.02;;;9.93;;
14235;SDS011;7202;50.718;7.072;2023-06-22T12:20:07;11.00;;;9.90;;
14235;SDS011;7202;50.718;7.072;2023-06-22T12:22:37;11.57;;;10.38;;
14235;SDS011;7202;50.718;7.072;2023-06-22T12:25:05;10.73;;;9.65;;
14235;SDS011;7202;50.718;7.072;2023-06-22T12:27:35;12.90;;;11.60;;
14235;SDS011;7202;50.718;7.072;2023-06-22T12:30:04;13.25;;;11.88;;
14235;SDS011;7202;50.718;7.072;2023-06-22T12:32:35;13.30;;;11.90;;
14235;SDS011;7202;50.718;7.072;2023-06-22T12:35:04;13.40;;;12.18;;
14235;SDS011;7202;50.718;7.072;2023-06-22T12:37:38;15.30;;;12.00;;
14235;SDS011;7202;50.718;7.072;2023-06-22T12:40:11;15.05;;;12.77;;
14235;SDS011;7202;50.718;7.072;2023-06-22T12:42:40;12.85;;;11.60;;
14235;SDS011;7202;50.718;7.072;2023-06-22T12:45:09;10.93;;;9.68;;
14235;SDS011;7202;50.718;7.072;2023-06-22T12:47:39;9.75;;;8.85;;
14235;SDS011;7202;50.718;7.072;2023-06-22T12:50:08;9.77;;;8.50;;
14235;SDS011;7202;50.718;7.072;2023-06-22T12:52:37;8.63;;;7.82;;
14235;SDS011;7202;50.718;7.072;2023-06-22T12:55:08;8.30;;;7.43;;
14235;SDS011;7202;50.718;7.072;2023-06-22T12:57:36;8.88;;;7.97;;
14235;SDS011;7202;50.718;7.072;2023-06-22T13:00:06;8.02;;;7.22;;
14235;SDS011;7202;50.718;7.072;2023-06-22T13:02:37;8.23;;;7.07;;
14235;SDS011;7202;50.718;7.072;2023-06-22T13:05:07;7.97;;;7.18;;
14235;SDS011;7202;50.718;7.072;2023-06-22T13:07:36;8.55;;;7.70;;
14235;SDS011;7202;50.718;7.072;2023-06-22T13:10:05;8.05;;;7.25;;
14235;SDS011;7202;50.718;7.072;2023-06-22T13:12:35;8.77;;;7.55;;
14235;SDS011;7202;50.718;7.072;2023-06-22T13:15:04;9.73;;;7.55;;
14235;SDS011;7202;50.718;7.072;2023-06-22T13:17:33;8.15;;;7.25;;
14235;SDS011;7202;50.718;7.072;2023-06-22T13:20:02;7.85;;;7.10;;
14235;SDS011;7202;50.718;7.072;2023-06-22T13:22:34;10.18;;;7.68;;
14235;SDS011;7202;50.718;7.072;2023-06-22T13:25:07;8.73;;;7.90;;
14235;SDS011;7202;50.718;7.072;2023-06-22T13:27:39;7.85;;;7.15;;
14235;SDS011;7202;50.718;7.072;2023-06-22T13:30:08;7.85;;;7.15;;
14235;SDS011;7202;50.718;7.072;2023-06-22T13:32:40;7.20;;;6.50;;
14235;SDS011;7202;50.718;7.072;2023-06-22T13:35:10;8.88;;;6.55;;
14235;SDS011;7202;50.718;7.072;2023-06-22T13:37:41;6.60;;;6.00;;
14235;SDS011;7202;50.718;7.072;2023-06-22T13:40:10;7.13;;;6.32;;
14235;SDS011;7202;50.718;7.072;2023-06-22T13:42:38;6.32;;;5.68;;
14235;SDS011;7202;50.718;7.072;2023-06-22T13:45:07;5.32;;;4.82;;
14235;SDS011;7202;50.718;7.072;2023-06-22T13:47:36;5.18;;;4.13;;
14235;SDS011;7202;50.718;7.072;2023-06-22T13:50:05;4.88;;;4.47;;
14235;SDS011;7202;50.718;7.072;2023-06-22T13:52:35;4.88;;;4.38;;
14235;SDS011;7202;50.718;7.072;2023-06-22T13:55:06;5.30;;;4.05;;
14235;SDS011;7202;50.718;7.072;2023-06-22T13:57:35;4.80;;;4.18;;
14235;SDS011;7202;50.718;7.072;2023-06-22T14:00:08;4.78;;;4.38;;
14235;SDS011;7202;50.718;7.072;2023-06-22T14:02:39;5.30;;;4.80;;
14235;SDS011;7202;50.718;7.072;2023-06-22T14:05:08;5.18;;;4.68;;
14235;SDS011;7202;50.718;7.072;2023-06-22T14:07:38;6.45;;;5.70;;
14235;SDS011;7202;50.718;7.072;2023-06-22T14:10:08;7.03;;;5.75;;
14235;SDS011;7202;50.718;7.072;2023-06-22T14:12:38;7.05;;;5.68;;
14235;SDS011;7202;50.718;7.072;2023-06-22T14:15:07;7.68;;;5.75;;
14235;SDS011;7202;50.718;7.072;2023-06-22T14:17:35;6.63;;;5.97;;
14235;SDS011;7202;50.718;7.072;2023-06-22T14:20:05;7.13;;;5.90;;
14235;SDS011;7202;50.718;7.072;2023-06-22T14:22:35;6.35;;;5.72;;
14235;SDS011;7202;50.718;7.072;2023-06-22T14:25:04;8.43;;;5.72;;
14235;SDS011;7202;50.718;7.072;2023-06-22T14:27:35;5.97;;;5.38;;
14235;SDS011;7202;50.718;7.072;2023-06-22T14:30:04;5.88;;;5.30;;
14235;SDS011;7202;50.718;7.072;2023-06-22T14:32:34;6.18;;;5.20;;
14235;SDS011;7202;50.718;7.072;2023-06-22T14:35:03;5.40;;;4.90;;
14235;SDS011;7202;50.718;7.072;2023-06-22T14:37:32;10.48;;;6.38;;
14235;SDS011;7202;50.718;7.072;2023-06-22T14:40:00;15.50;;;7.43;;
14235;SDS011;7202;50.718;7.072;2023-06-22T14:42:29;18.40;;;8.18;;
14235;SDS011;7202;50.718;7.072;2023-06-22T14:44:59;14.90;;;8.32;;
14235;SDS011;7202;50.718;7.072;2023-06-22T14:47:28;18.48;;;8.10;;
14235;SDS011;7202;50.718;7.072;2023-06-22T14:49:56;14.23;;;8.00;;
14235;SDS011;7202;50.718;7.072;2023-06-22T14:52:27;14.65;;;7.60;;
14235;SDS011;7202;50.718;7.072;2023-06-22T14:54:55;7.97;;;6.68;;
14235;SDS011;7202;50.718;7.072;2023-06-22T14:57:24;10.40;;;6.82;;
14235;SDS011;7202;50.718;7.072;2023-06-22T14:59:52;10.02;;;7.15;;
14235;SDS011;7202;50.718;7.072;2023-06-22T15:02:23;11.10;;;7.43;;
14235;SDS011;7202;50.718;7.072;2023-06-22T15:04:52;8.05;;;6.70;;
14235;SDS011;7202;50.718;7.072;2023-06-22T15:07:21;11.63;;;7.43;;
14235;SDS011;7202;50.718;7.072;2023-06-22T15:09:49;8.45;;;6.65;;
14235;SDS011;7202;50.718;7.072;2023-06-22T15:12:18;10.98;;;8.05;;
14235;SDS011;7202;50.718;7.072;2023-06-22T15:14:47;12.38;;;7.38;;
14235;SDS011;7202;50.718;7.072;2023-06-22T15:17:15;9.30;;;7.57;;
14235;SDS011;7202;50.718;7.072;2023-06-22T15:19:45;9.88;;;6.72;;
14235;SDS011;7202;50.718;7.072;2023-06-22T15:22:14;12.10;;;7.82;;
14235;SDS011;7202;50.718;7.072;2023-06-22T15:24:44;10.75;;;8.10;;
14235;SDS011;7202;50.718;7.072;2023-06-22T15:27:15;12.05;;;8.98;;
14235;SDS011;7202;50.718;7.072;2023-06-22T15:29:43;11.23;;;7.95;;
14235;SDS011;7202;50.718;7.072;2023-06-22T15:32:12;13.45;;;8.23;;
14235;SDS011;7202;50.718;7.072;2023-06-22T15:34:40;11.35;;;8.77;;
14235;SDS011;7202;50.718;7.072;2023-06-22T15:37:10;12.27;;;8.00;;
14235;SDS011;7202;50.718;7.072;2023-06-22T15:39:39;11.07;;;7.78;;
14235;SDS011;7202;50.718;7.072;2023-06-22T15:42:11;15.00;;;8.63;;
14235;SDS011;7202;50.718;7.072;2023-06-22T15:44:40;11.98;;;7.30;;
14235;SDS011;7202;50.718;7.072;2023-06-22T15:47:08;12.57;;;7.25;;
14235;SDS011;7202;50.718;7.072;2023-06-22T15:49:37;8.50;;;6.35;;
14235;SDS011;7202;50.718;7.072;2023-06-22T15:52:06;10.35;;;7.20;;
14235;SDS011;7202;50.718;7.072;2023-06-22T15:54:36;11.98;;;6.57;;
14235;SDS011;7202;50.718;7.072;2023-06-22T15:57:05;9.55;;;6.53;;
14235;SDS011;7202;50.718;7.072;2023-06-22T15:59:33;10.63;;;5.40;;
14235;SDS011;7202;50.718;7.072;2023-06-22T16:02:02;9.57;;;6.03;;
14235;SDS011;7202;50.718;7.072;2023-06-22T16:04:31;10.48;;;5.85;;
14235;SDS011;7202;50.718;7.072;2023-06-22T16:06:59;9.35;;;4.63;;
14235;SDS011;7202;50.718;7.072;2023-06-22T16:09:28;6.05;;;4.55;;
14235;SDS011;7202;50.718;7.072;2023-06-22T16:11:59;8.55;;;4.85;;